Time;durP1;ratioP1;P1;durP2;ratioP2;P2;SDS_P1;SDS_P2;PMS_P1;PMS_P2;Temp;Humidity;BMP_temperature;BMP_pressure;BME280_temperature;BME280_humidity;BME280_pressure;Samples;Min_cycle;Max_cycle;Signal;HPM_P1;HPM_P2
2022/10/05 00:01:28;;;;;;;4.67;2.87;;;11.20;99.90;;;-141.84;76.19;18781.53;5092203;28;20224;-73
2022/10/05 00:04:09;;;;;;;4.03;3.63;;;11.10;99.90;;;-141.84;74.97;18785.59;5091981;28;20282;-72
2022/10/05 00:06:37;;;;;;;4.87;2.90;;;11.20;99.90;;;-141.84;74.54;18793.72;5091663;28;20227;-72
2022/10/05 00:09:16;;;;;;;3.70;3.33;;;11.20;99.90;;;-141.84;74.58;18812.00;5092071;28;20764;-71
2022/10/05 00:11:45;;;;;;;5.00;2.80;;;11.20;99.90;;;-141.84;75.12;18781.53;5092340;28;20223;-71
2022/10/05 00:14:18;;;;;;;4.90;3.30;;;11.20;99.90;;;-141.84;75.10;18793.72;5092455;28;20705;-71
2022/10/05 00:16:46;;;;;;;3.90;3.00;;;11.20;99.90;;;-141.84;74.03;18807.94;5091741;28;20220;-71
2022/10/05 00:19:26;;;;;;;4.40;2.77;;;11.20;99.90;;;-141.84;74.09;18814.03;5091814;28;20247;-73
2022/10/05 00:21:59;;;;;;;3.93;3.00;;;11.30;99.90;;;-141.84;72.99;18818.09;5092066;28;20231;-72
2022/10/05 00:24:29;;;;;;;2.77;2.47;;;11.40;99.90;;;-141.84;73.78;18793.72;5091836;28;20234;-71
2022/10/05 00:27:01;;;;;;;3.70;2.93;;;11.30;99.90;;;-141.84;73.13;18840.47;5092067;28;20224;-71
2022/10/05 00:29:29;;;;;;;5.23;3.03;;;11.40;99.90;;;-141.84;73.08;18797.78;5091843;28;20188;-72
2022/10/05 00:31:57;;;;;;;4.93;2.77;;;11.40;99.90;;;-141.84;72.79;18824.22;5091899;28;20203;-72
2022/10/05 00:34:25;;;;;;;4.77;3.27;;;11.30;99.90;;;-141.84;73.64;18789.66;5091014;28;20629;-71
2022/10/05 00:36:53;;;;;;;5.23;2.77;;;11.20;99.90;;;-141.84;74.31;18769.34;5091346;28;20236;-70
2022/10/05 00:39:21;;;;;;;4.93;3.10;;;11.20;99.90;;;-141.84;74.39;18793.72;5091169;28;20242;-71
2022/10/05 00:42:10;;;;;;;5.10;2.97;;;11.10;99.90;;;-141.84;74.54;18785.59;5091804;28;20223;-71
2022/10/05 00:44:45;;;;;;;3.43;3.00;;;11.10;99.90;;;-141.84;73.98;18781.53;5071281;28;20185;-72
2022/10/05 00:47:40;;;;;;;4.67;2.90;;;11.10;99.90;;;-141.84;73.75;18789.66;5071536;28;20180;-72
2022/10/05 00:50:56;;;;;;;4.70;3.00;;;11.10;99.90;;;-141.84;74.70;18767.31;5071460;28;20706;-71
2022/10/05 00:53:42;;;;;;;5.70;2.70;;;11.00;99.90;;;-141.84;74.10;18751.06;5046233;28;20237;-70
2022/10/05 00:56:30;;;;;;;5.60;2.97;;;11.00;99.90;;;-141.84;73.87;18779.50;5064129;28;20238;-73
2022/10/05 00:59:16;;;;;;;4.10;3.03;;;11.00;99.90;;;-141.84;73.36;18789.66;5071495;28;20222;-71
2022/10/05 01:01:57;;;;;;;3.53;2.73;;;11.10;99.90;;;-141.84;74.22;18769.34;5070834;28;20597;-71
2022/10/05 01:04:35;;;;;;;5.23;3.10;;;11.00;99.90;;;-141.84;74.61;18744.97;5070872;28;20926;-71
2022/10/05 01:07:15;;;;;;;3.40;2.80;;;11.00;99.90;;;-141.84;74.87;18753.09;5071270;28;20223;-73
2022/10/05 01:09:56;;;;;;;5.13;3.07;;;10.90;99.90;;;-141.84;74.90;18763.25;5070958;28;20232;-71
2022/10/05 01:12:37;;;;;;;3.37;2.70;;;10.90;99.90;;;-141.84;75.16;18753.09;5071235;28;20237;-74
2022/10/05 01:15:16;;;;;;;5.33;2.80;;;10.80;99.90;;;-141.84;75.44;18767.31;5080880;28;20711;-71
2022/10/05 01:17:52;;;;;;;6.13;2.60;;;10.80;99.90;;;-141.84;75.10;18744.97;5089388;28;20499;-72
2022/10/05 01:20:35;;;;;;;5.90;3.07;;;10.80;99.90;;;-141.84;74.57;18738.88;5090346;28;20180;-73
2022/10/05 01:23:58;;;;;;;4.70;3.00;;;10.80;99.90;;;-141.84;75.18;18765.28;5089984;28;20208;-71
2022/10/05 01:26:51;;;;;;;5.70;3.37;;;10.80;99.90;;;-141.84;74.23;18714.50;5058370;28;20224;-72
2022/10/05 01:29:27;;;;;;;4.60;2.77;;;10.80;99.90;;;-141.84;74.78;18749.03;5069832;28;20621;-70
2022/10/05 01:32:04;;;;;;;3.93;3.00;;;10.80;99.90;;;-141.84;75.09;18738.88;5069986;28;20180;-75
2022/10/05 01:34:42;;;;;;;5.73;2.90;;;10.80;99.90;;;-141.84;75.24;18673.84;5070986;28;20231;-71
2022/10/05 01:37:23;;;;;;;5.17;3.03;;;10.80;99.90;;;-141.84;75.41;18720.59;5089604;28;20231;-71
2022/10/05 01:40:02;;;;;;;2.80;2.50;;;10.70;99.90;;;-141.84;75.45;18718.56;5089639;28;20733;-71
2022/10/05 01:42:51;;;;;;;3.90;2.63;;;10.80;99.90;;;-141.84;74.89;18728.72;5089625;28;20215;-73
2022/10/05 01:45:32;;;;;;;4.53;3.07;;;10.70;99.90;;;-141.84;75.24;18753.09;5089488;28;20776;-73
2022/10/05 01:48:09;;;;;;;6.07;3.20;;;10.70;99.90;;;-141.84;75.08;18734.81;5088786;28;20242;-71
2022/10/05 01:50:51;;;;;;;4.83;3.10;;;10.70;99.90;;;-141.84;75.08;18726.69;5089163;28;20184;-75
2022/10/05 01:53:36;;;;;;;4.20;2.80;;;10.70;99.90;;;-141.84;75.27;18720.59;5091251;28;20195;-71
2022/10/05 01:56:18;;;;;;;4.97;2.67;;;10.70;99.90;;;-141.84;75.98;18704.31;5078107;28;20707;-71
2022/10/05 01:59:01;;;;;;;4.17;2.90;;;10.60;99.90;;;-141.84;77.14;18675.88;5110725;28;20207;-74
2022/10/05 02:01:43;;;;;;;5.33;2.83;;;10.50;99.90;;;-141.84;77.84;18671.81;5110203;28;20227;-71
2022/10/05 02:04:18;;;;;;;5.97;2.83;;;10.40;99.90;;;-141.84;77.83;18631.19;5110630;28;20218;-72
2022/10/05 02:07:16;;;;;;;5.07;3.10;;;10.30;99.90;;;-141.84;78.36;18635.25;5090063;28;20722;-72
2022/10/05 02:09:53;;;;;;;4.67;3.10;;;10.30;99.90;;;-141.84;78.60;18635.25;5090349;28;20231;-72
2022/10/05 02:12:27;;;;;;;3.77;3.10;;;10.20;99.90;;;-141.84;78.57;18619.00;5089789;28;20223;-72
2022/10/05 02:15:03;;;;;;;3.60;3.10;;;10.20;99.90;;;-141.84;77.60;18657.59;5090180;28;20223;-72
2022/10/05 02:17:40;;;;;;;3.80;2.97;;;10.30;99.90;;;-141.84;78.45;18610.88;5090146;28;20215;-71
2022/10/05 02:20:14;;;;;;;4.33;3.23;;;10.20;99.90;;;-141.84;79.00;18631.19;5091028;28;20188;-71
2022/10/05 02:22:47;;;;;;;5.40;3.30;;;10.10;99.90;;;-141.84;79.38;18610.88;5090154;28;20305;-74
2022/10/05 02:25:20;;;;;;;3.93;2.83;;;10.00;99.90;;;-141.84;79.70;18614.94;5095301;28;20223;-74
2022/10/05 02:27:53;;;;;;;4.77;3.10;;;10.00;99.90;;;-141.84;80.07;18606.81;5109915;28;20230;-72
2022/10/05 02:30:21;;;;;;;4.17;3.27;;;9.90;99.90;;;-141.84;80.32;18594.63;5113398;28;20227;-71
2022/10/05 02:32:58;;;;;;;3.80;2.80;;;9.90;99.90;;;-141.84;80.61;18586.50;5098180;28;20223;-71
2022/10/05 02:35:26;;;;;;;4.60;2.90;;;9.90;99.90;;;-141.84;80.85;18580.41;5113476;28;20179;-70
2022/10/05 02:38:10;;;;;;;3.87;3.17;;;9.90;99.90;;;-141.84;80.94;18533.66;5113901;28;20556;-71
2022/10/05 02:40:53;;;;;;;7.53;3.20;;;9.80;99.90;;;-141.84;80.95;18558.03;5112985;27;20222;-72
2022/10/05 02:43:39;;;;;;;3.87;3.13;;;9.90;99.90;;;-141.84;80.64;18574.28;5113159;27;20219;-71
2022/10/05 02:46:23;;;;;;;3.33;2.90;;;9.90;99.90;;;-141.84;80.36;18553.97;5112698;27;20625;-74
2022/10/05 02:49:10;;;;;;;4.53;2.70;;;9.90;99.90;;;-141.84;80.09;18566.16;5113289;28;20231;-72
2022/10/05 02:51:49;;;;;;;3.63;2.93;;;9.90;99.90;;;-141.84;79.88;18521.47;5113049;28;20706;-72
2022/10/05 02:54:39;;;;;;;4.20;2.77;;;9.90;99.90;;;-141.84;80.32;18566.16;5112763;28;20230;-72
2022/10/05 02:57:19;;;;;;;6.10;3.00;;;9.90;99.90;;;-141.84;80.62;18549.91;5092451;28;20243;-72
2022/10/05 02:59:57;;;;;;;3.60;2.90;;;9.80;99.90;;;-141.84;81.13;18517.41;5092722;28;20227;-71
2022/10/05 03:02:33;;;;;;;4.00;3.07;;;9.80;99.90;;;-141.84;81.50;18499.13;5092188;28;20199;-71
2022/10/05 03:05:12;;;;;;;3.97;3.03;;;9.70;99.90;;;-141.84;82.07;18495.06;5098592;28;20194;-71
2022/10/05 03:07:55;;;;;;;3.57;3.10;;;9.70;99.90;;;-141.84;82.61;18472.72;5112788;28;20223;-71
2022/10/05 03:10:34;;;;;;;4.47;2.93;;;9.70;99.90;;;-141.84;82.79;18454.44;5112573;28;20225;-72
2022/10/05 03:13:12;;;;;;;5.57;3.00;;;9.70;99.90;;;-141.84;83.11;18452.41;5111443;28;20239;-71
2022/10/05 03:16:15;;;;;;;4.10;3.03;;;9.60;99.90;;;-141.84;83.34;18442.25;5112532;28;20230;-70
2022/10/05 03:19:01;;;;;;;5.43;3.33;;;9.50;99.90;;;-141.84;82.80;18480.84;5112414;28;20276;-72
2022/10/05 03:21:56;;;;;;;3.77;2.80;;;9.60;99.90;;;-141.84;83.11;18452.41;5112224;27;20219;-71
2022/10/05 03:25:12;;;;;;;5.37;3.60;;;9.60;99.90;;;-141.84;83.20;18478.81;5112053;27;20400;-73
2022/10/05 03:28:01;;;;;;;6.53;3.43;;;9.60;99.90;;;-141.84;82.65;18452.41;5107926;28;20222;-71
2022/10/05 03:30:41;;;;;;;6.67;3.80;;;9.60;99.90;;;-141.84;82.12;18444.28;5112332;27;20220;-71
2022/10/05 03:33:22;;;;;;;7.00;3.47;;;9.60;99.90;;;-141.84;81.88;18415.81;5111979;28;20234;-72
2022/10/05 03:36:02;;;;;;;4.83;3.43;;;9.60;99.90;;;-141.84;82.30;18430.06;5112256;28;20222;-72
2022/10/05 03:38:43;;;;;;;4.13;3.10;;;9.60;99.90;;;-141.84;82.49;18428.03;5111976;28;20268;-71
2022/10/05 03:41:20;;;;;;;4.23;3.63;;;9.60;99.90;;;-141.84;82.51;18428.03;5112496;28;20179;-71
2022/10/05 03:44:11;;;;;;;6.93;3.73;;;9.50;99.90;;;-141.84;82.43;18411.75;5091990;28;20714;-71
2022/10/05 03:46:58;;;;;;;5.63;3.60;;;9.50;99.90;;;-141.84;82.64;18405.66;5091151;28;20227;-72
2022/10/05 03:49:47;;;;;;;5.37;3.40;;;9.50;99.90;;;-141.84;82.09;18413.78;5091475;28;20227;-73
2022/10/05 03:52:20;;;;;;;6.33;3.57;;;9.50;99.90;;;-141.84;81.73;18419.88;5091432;28;20250;-72
2022/10/05 03:54:57;;;;;;;6.83;4.00;;;9.60;99.90;;;-141.84;80.99;18428.03;5089908;28;20279;-72
2022/10/05 03:57:31;;;;;;;6.10;4.00;;;9.60;99.90;;;-141.84;81.39;18411.75;5080541;28;20233;-70
2022/10/05 04:00:05;;;;;;;7.10;3.50;;;9.60;99.90;;;-141.84;81.45;18430.06;5092189;28;20224;-71
2022/10/05 04:02:41;;;;;;;6.57;3.60;;;9.60;99.90;;;-141.84;81.45;18411.75;5091282;28;20203;-72
2022/10/05 04:05:17;;;;;;;6.67;3.80;;;9.60;99.90;;;-141.84;81.95;18423.94;5098915;28;20191;-71
2022/10/05 04:07:55;;;;;;;4.53;4.10;;;9.60;99.90;;;-141.84;82.28;18379.25;5111721;28;20233;-72
2022/10/05 04:10:31;;;;;;;5.33;3.87;;;9.60;99.90;;;-141.84;81.57;18405.66;5111223;28;20664;-72
2022/10/05 04:13:04;;;;;;;5.13;3.50;;;9.60;99.90;;;-141.84;81.54;18423.94;5111431;28;20230;-72
2022/10/05 04:15:40;;;;;;;5.13;3.70;;;9.60;99.90;;;-141.84;81.73;18430.06;5111376;28;20718;-70
2022/10/05 04:18:22;;;;;;;6.47;4.83;;;9.70;99.90;;;-141.84;80.24;18440.22;5110780;28;20233;-72
2022/10/05 04:20:56;;;;;;;6.53;3.90;;;9.80;99.90;;;-141.84;80.50;18444.28;5110727;28;20231;-72
2022/10/05 04:23:38;;;;;;;9.40;6.57;;;9.80;99.90;;;-141.84;81.15;18423.94;5110171;28;20178;-73
2022/10/05 04:26:14;;;;;;;7.70;5.50;;;9.80;99.90;;;-141.84;80.94;18399.56;5111138;28;20219;-71
2022/10/05 04:28:52;;;;;;;6.87;4.07;;;9.80;99.90;;;-141.84;80.90;18450.38;5110810;28;20229;-71
2022/10/05 04:31:43;;;;;;;5.20;3.63;;;9.80;99.90;;;-141.84;81.01;18409.72;5110496;28;20718;-73
2022/10/05 04:34:44;;;;;;;4.33;3.50;;;9.80;99.90;;;-141.84;80.20;18434.13;5111165;28;20235;-71
2022/10/05 04:37:23;;;;;;;8.77;4.03;;;9.80;99.90;;;-141.84;80.14;18401.59;5110622;28;20236;-72
2022/10/05 04:40:08;;;;;;;5.10;4.00;;;9.80;99.90;;;-141.84;80.36;18369.09;5110656;28;20731;-71
2022/10/05 04:42:48;;;;;;;4.80;3.47;;;9.80;99.90;;;-141.84;80.44;18387.38;5104121;28;20231;-71
2022/10/05 04:45:37;;;;;;;5.43;3.90;;;9.80;99.90;;;-141.84;79.38;18407.69;5090427;28;20235;-71
2022/10/05 04:48:52;;;;;;;7.80;3.90;;;9.90;99.90;;;-141.84;78.34;18434.13;5089905;28;20235;-70
2022/10/05 04:51:36;;;;;;;5.83;3.80;;;9.90;99.90;;;-141.84;78.35;18438.19;5083015;28;20277;-72
2022/10/05 04:54:20;;;;;;;6.40;4.10;;;10.00;99.90;;;-141.84;78.20;18442.25;5090211;28;20227;-71
2022/10/05 04:56:54;;;;;;;5.33;4.07;;;10.10;99.90;;;-141.84;77.62;18486.94;5108619;28;20219;-72
2022/10/05 05:00:03;;;;;;;4.80;4.23;;;10.00;99.90;;;-141.84;76.94;18470.69;5110514;28;20203;-70
2022/10/05 05:03:15;;;;;;;6.43;4.13;;;10.10;99.90;;;-141.84;77.74;18486.94;5110310;28;20195;-72
2022/10/05 05:05:58;;;;;;;4.73;4.20;;;10.10;99.90;;;-141.84;78.29;18460.53;5086244;28;20383;-72
2022/10/05 05:09:13;;;;;;;5.83;4.13;;;10.00;99.90;;;-141.84;79.00;18438.19;5110518;28;20222;-71
2022/10/05 05:12:00;;;;;;;4.97;4.07;;;10.00;99.90;;;-141.84;77.71;18462.56;5110651;28;20288;-71
2022/10/05 05:14:57;;;;;;;5.10;3.70;;;10.00;99.90;;;-141.84;76.81;18470.69;5110966;28;20207;-71
2022/10/05 05:17:48;;;;;;;5.13;3.93;;;10.10;99.90;;;-141.84;76.17;18495.06;5110419;28;20266;-73
2022/10/05 05:20:27;;;;;;;6.27;4.00;;;10.20;99.90;;;-141.84;76.91;18495.06;5110881;28;20211;-72
2022/10/05 05:23:10;;;;;;;4.97;4.00;;;10.10;99.90;;;-141.84;77.31;18462.56;5111503;28;20203;-72
2022/10/05 05:25:52;;;;;;;9.17;4.17;;;10.10;99.90;;;-141.84;77.21;18462.56;5091370;28;20219;-72
2022/10/05 05:28:34;;;;;;;6.53;4.13;;;10.10;99.90;;;-141.84;76.35;18513.34;5090249;28;20240;-72
2022/10/05 05:31:18;;;;;;;7.20;4.10;;;10.20;99.90;;;-141.84;77.21;18486.94;5090249;28;20223;-70
2022/10/05 05:34:03;;;;;;;6.40;4.17;;;10.20;99.90;;;-141.84;76.40;18529.59;5090387;28;20220;-71
2022/10/05 05:36:53;;;;;;;6.10;4.13;;;10.30;99.90;;;-141.84;76.77;18497.09;5090356;28;20695;-72
2022/10/05 05:39:28;;;;;;;7.27;4.30;;;10.20;99.90;;;-141.84;76.72;18519.44;5090069;28;20231;-71
2022/10/05 05:42:15;;;;;;;6.30;4.03;;;10.30;99.90;;;-141.84;77.28;18484.91;5089980;28;20733;-70
2022/10/05 05:44:50;;;;;;;5.37;4.40;;;10.30;99.90;;;-141.84;77.09;18525.53;5090572;28;20250;-71
2022/10/05 05:47:33;;;;;;;5.57;3.70;;;10.50;99.90;;;-141.84;77.46;18491.00;5090544;28;20685;-70
2022/10/05 05:50:29;;;;;;;7.80;4.37;;;10.40;99.90;;;-141.84;75.79;18553.97;5090629;28;20200;-70
2022/10/05 05:53:06;;;;;;;6.63;4.53;;;10.40;99.90;;;-141.84;76.17;18547.88;5090785;28;20230;-71
2022/10/05 05:55:41;;;;;;;9.73;4.43;;;10.40;99.90;;;-141.84;76.47;18513.34;5082333;28;20639;-71
2022/10/05 05:58:20;;;;;;;6.17;3.83;;;10.50;99.90;;;-141.84;77.00;18527.56;5084809;28;20852;-71
2022/10/05 06:00:57;;;;;;;7.17;4.30;;;10.50;99.90;;;-141.84;76.75;18509.28;5090395;28;20239;-72
2022/10/05 06:03:37;;;;;;;6.67;3.70;;;10.60;99.90;;;-141.84;76.50;18517.41;5093025;28;20253;-71
2022/10/05 06:06:11;;;;;;;5.60;3.67;;;10.60;99.90;;;-141.84;75.69;18562.09;5109136;28;20223;-71
2022/10/05 06:08:45;;;;;;;4.10;3.50;;;10.70;99.90;;;-141.84;75.64;18564.13;5114731;28;20187;-72
2022/10/05 06:11:21;;;;;;;6.70;4.63;;;10.80;99.90;;;-141.84;75.26;18588.53;5115222;28;20643;-72
2022/10/05 06:13:50;;;;;;;6.77;4.30;;;10.90;99.90;;;-141.84;75.38;18556.00;5114202;28;20207;-73
2022/10/05 06:16:26;;;;;;;5.60;3.83;;;11.00;99.90;;;-141.84;75.32;18598.69;5113263;28;20235;-71
2022/10/05 06:19:02;;;;;;;7.30;4.47;;;11.10;99.90;;;-141.84;74.33;18606.81;5114065;28;20268;-72
2022/10/05 06:21:40;;;;;;;9.20;4.07;;;11.20;99.90;;;-141.84;72.55;18671.81;5114384;28;20219;-71
2022/10/05 06:24:19;;;;;;;4.53;3.77;;;11.40;99.90;;;-141.84;72.30;18692.13;5114570;28;20595;-71
2022/10/05 06:27:24;;;;;;;5.20;4.20;;;11.60;99.90;;;-141.84;71.29;18740.91;5114672;28;20219;-70
2022/10/05 06:30:11;;;;;;;7.10;4.00;;;11.80;99.90;;;-141.84;70.36;18757.16;5114126;28;20219;-71
2022/10/05 06:33:01;;;;;;;7.23;4.10;;;11.90;99.90;;;-141.84;69.95;18809.97;5114164;28;20195;-71
2022/10/05 06:35:52;;;;;;;4.50;3.47;;;12.10;99.90;;;-141.84;68.86;18887.19;5114190;28;20188;-71
2022/10/05 06:38:47;;;;;;;6.97;3.50;;;12.30;99.90;;;-141.84;68.92;18879.06;5114909;28;20188;-72
2022/10/05 06:41:30;;;;;;;9.10;3.70;;;12.30;99.90;;;-141.84;68.45;18921.75;5114458;28;20280;-72
2022/10/05 06:44:03;;;;;;;6.70;3.53;;;12.40;99.90;;;-141.84;68.10;18962.38;5114396;28;20207;-72
2022/10/05 06:46:35;;;;;;;4.67;3.63;;;12.50;99.90;;;-141.84;67.90;18972.53;5114121;28;20230;-73
2022/10/05 06:49:20;;;;;;;4.30;3.90;;;12.60;99.90;;;-141.84;67.34;19033.50;5114076;28;20233;-72
2022/10/05 06:51:59;;;;;;;8.83;4.00;;;12.70;99.90;;;-141.84;67.89;18994.88;5113709;28;20740;-71
2022/10/05 06:54:46;;;;;;;4.83;3.80;;;12.70;99.90;;;-141.84;68.31;18968.47;5113657;28;20616;-71
2022/10/05 06:57:35;;;;;;;4.00;3.60;;;12.70;99.90;;;-141.84;67.93;19011.13;5093504;28;20272;-72
2022/10/05 07:00:14;;;;;;;4.17;3.77;;;12.80;99.90;;;-141.84;68.38;19033.50;5092953;28;20675;-72
2022/10/05 07:02:53;;;;;;;7.73;4.63;;;12.80;99.90;;;-141.84;67.44;19049.75;5093065;28;20219;-72
2022/10/05 07:05:52;;;;;;;6.27;4.20;;;12.90;99.90;;;-141.84;66.46;19102.56;5093155;28;20188;-70
2022/10/05 07:08:38;;;;;;;4.57;4.10;;;13.10;99.90;;;-141.84;66.52;19143.22;5112158;28;20548;-68
2022/10/05 07:11:25;;;;;;;4.13;3.73;;;13.20;99.90;;;-141.84;66.17;19187.91;5113307;28;20297;-67
2022/10/05 07:14:25;;;;;;;6.15;4.13;;;13.30;99.90;;;-141.84;64.49;19326.09;5112281;28;20633;-67
2022/10/05 07:17:12;;;;;;;4.13;3.70;;;13.40;99.90;;;-141.84;64.54;19356.59;5113190;28;20215;-67
2022/10/05 07:19:51;;;;;;;6.67;3.93;;;13.60;99.90;;;-141.84;64.15;19350.50;5112827;27;20566;-67
2022/10/05 07:22:48;;;;;;;6.07;3.67;;;13.70;99.90;;;-141.84;64.51;19342.34;5092501;28;20224;-74
2022/10/05 07:25:23;;;;;;;4.00;3.65;;;13.70;99.90;;;-141.84;63.68;19391.13;5097723;28;20223;-72
2022/10/05 07:28:00;;;;;;;4.15;3.72;;;13.70;99.90;;;-141.84;64.13;19385.03;5112842;28;20226;-72
2022/10/05 07:30:34;;;;;;;6.53;4.10;;;13.70;99.90;;;-141.84;63.91;19409.41;5112771;28;20254;-71
2022/10/05 07:33:14;;;;;;;4.47;3.60;;;13.80;99.90;;;-141.84;63.53;19443.97;5113048;28;20223;-71
2022/10/05 07:38:52;;;;;;;6.30;4.05;;;13.90;99.90;;;-141.84;63.18;19478.50;5110142;27;20748;-72
2022/10/05 07:41:35;;;;;;;5.93;4.38;;;14.00;99.90;;;-141.84;62.62;19543.53;5111884;28;20193;-73
2022/10/05 07:44:14;;;;;;;4.68;4.28;;;14.10;99.90;;;-141.84;62.79;19547.59;5092904;28;20208;-73
2022/10/05 07:46:52;;;;;;;6.90;4.20;;;14.30;99.90;;;-141.84;62.00;19655.31;5090655;28;20229;-73
2022/10/05 07:49:34;;;;;;;6.43;3.97;;;14.40;99.90;;;-141.84;62.16;19618.75;5091514;28;20302;-71
2022/10/05 07:52:10;;;;;;;5.75;4.05;;;14.50;99.90;;;-141.84;62.53;19665.47;5091344;28;20242;-72
2022/10/05 07:54:55;;;;;;;6.15;4.45;;;14.50;99.90;;;-141.84;62.69;19651.25;5091883;28;20246;-73
2022/10/05 07:57:38;;;;;;;5.10;4.05;;;14.60;99.90;;;-141.84;62.30;19651.25;5111923;28;20234;-72
2022/10/05 08:00:13;;;;;;;5.57;4.10;;;14.70;99.90;;;-141.84;62.32;19632.97;5111848;28;20231;-73
2022/10/05 08:02:50;;;;;;;6.20;4.03;;;14.70;99.90;;;-141.84;62.60;19643.13;5111653;28;20299;-73
2022/10/05 08:05:26;;;;;;;5.30;4.05;;;14.60;99.90;;;-141.84;62.72;19639.06;5111914;28;20274;-71
2022/10/05 08:08:04;;;;;;;5.18;4.28;;;14.60;99.90;;;-141.84;62.28;19726.44;5111164;28;20206;-72
2022/10/05 08:10:44;;;;;;;6.70;4.40;;;14.70;99.90;;;-141.84;62.49;19708.16;5110908;27;20223;-72
2022/10/05 08:13:22;;;;;;;5.07;4.15;;;14.80;99.90;;;-141.84;62.26;19675.63;5111295;27;20223;-72
2022/10/05 08:15:57;;;;;;;5.60;3.75;;;14.80;99.90;;;-141.84;62.55;19695.97;5111264;27;20327;-72
2022/10/05 08:18:46;;;;;;;8.93;4.28;;;14.90;99.90;;;-141.84;63.05;19673.59;5111560;27;20605;-72
2022/10/05 08:21:19;;;;;;;6.70;4.13;;;14.80;99.90;;;-141.84;62.83;19663.44;5111100;27;20702;-72
2022/10/05 08:23:56;;;;;;;4.00;3.38;;;14.90;99.90;;;-141.84;62.57;19722.38;5111111;27;20230;-72
2022/10/05 08:26:36;;;;;;;7.38;4.40;;;15.00;99.90;;;-141.84;61.27;19793.50;5110079;28;20725;-72
2022/10/05 08:29:16;;;;;;;8.07;4.53;;;15.10;99.90;;;-141.84;62.02;19756.94;5111951;28;20187;-74
2022/10/05 08:31:52;;;;;;;5.78;4.30;;;15.10;99.90;;;-141.84;61.77;19769.13;5110795;28;20279;-73
2022/10/05 08:34:29;;;;;;;5.20;3.97;;;15.10;99.90;;;-141.84;62.52;19738.66;5110730;28;20684;-71
2022/10/05 08:37:05;;;;;;;5.80;4.25;;;15.00;99.90;;;-141.84;62.67;19685.81;5110462;28;20227;-74
2022/10/05 08:39:40;;;;;;;5.10;4.25;;;15.00;99.90;;;-141.84;62.35;19795.53;5110168;28;20231;-73
2022/10/05 08:43:05;;;;;;;7.60;5.03;;;15.10;99.90;;;-141.84;61.17;19882.94;5108208;28;20295;-73
2022/10/05 08:46:18;;;;;;;4.80;4.28;;;15.30;99.90;;;-141.84;60.50;19939.84;5090286;28;20228;-71
2022/10/05 08:49:39;;;;;;;4.55;4.15;;;15.60;99.90;;;-141.84;59.71;20021.16;5090214;28;20616;-73
2022/10/05 08:52:29;;;;;;;6.75;4.13;;;15.70;99.90;;;-141.84;60.34;20019.13;5032860;28;20815;-73
2022/10/05 08:55:37;;;;;;;4.53;3.67;;;15.80;99.90;;;-141.84;60.12;20031.31;5093210;28;20231;-73
2022/10/05 08:58:33;;;;;;;5.28;4.10;;;15.80;99.90;;;-141.84;60.87;20080.09;5110329;28;20274;-72
2022/10/05 09:01:14;;;;;;;4.95;3.60;;;15.80;99.90;;;-141.84;61.00;19994.72;5110247;28;20231;-73
2022/10/05 09:04:29;;;;;;;4.78;4.18;;;15.80;99.90;;;-141.84;60.64;19986.59;5110971;28;20245;-72
2022/10/05 09:07:56;;;;;;;5.00;4.10;;;15.80;99.90;;;-141.84;61.36;19986.59;5110365;28;20537;-72
2022/10/05 09:10:58;;;;;;;6.57;4.35;;;15.80;99.90;;;-141.84;61.35;19970.34;5026639;28;20237;-72
2022/10/05 09:14:01;;;;;;;7.00;4.38;;;15.70;99.90;;;-141.84;61.79;19887.00;5109945;28;20237;-72
2022/10/05 09:16:56;;;;;;;5.95;3.90;;;15.60;99.90;;;-141.84;61.69;19903.25;5109663;28;20223;-72
2022/10/05 09:20:06;;;;;;;5.38;4.15;;;15.60;99.90;;;-141.84;61.76;19899.19;5110420;28;20227;-71
2022/10/05 09:22:43;;;;;;;6.72;4.38;;;15.60;99.90;;;-141.84;61.69;19952.03;5110081;28;20238;-73
2022/10/05 09:25:23;;;;;;;7.40;4.07;;;15.60;99.90;;;-141.84;62.04;19931.72;5109999;28;20228;-72
2022/10/05 09:27:56;;;;;;;6.10;4.35;;;15.70;99.90;;;-141.84;61.67;19984.56;5110095;28;20235;-73
2022/10/05 09:30:40;;;;;;;5.45;4.13;;;15.70;99.90;;;-141.84;61.42;19956.09;5110271;28;20223;-72
2022/10/05 09:33:58;;;;;;;8.07;4.50;;;15.80;99.90;;;-141.84;61.50;19939.84;5109791;28;20227;-76
2022/10/05 09:37:28;;;;;;;5.45;3.92;;;15.80;99.90;;;-141.84;61.81;19962.19;5109989;28;20227;-73
2022/10/05 09:40:46;;;;;;;4.78;3.60;;;16.00;99.90;;;-141.84;60.70;20055.69;5110156;28;20222;-73
2022/10/05 09:44:11;;;;;;;4.97;3.88;;;16.20;99.90;;;-141.84;59.93;20191.88;5063624;28;20220;-71
2022/10/05 09:47:31;;;;;;;4.70;4.20;;;16.50;99.90;;;-141.84;59.85;20153.25;5088933;28;20235;-73
2022/10/05 09:50:32;;;;;;;4.22;3.83;;;16.60;99.90;;;-141.84;60.16;20187.81;5037946;28;20303;-72
2022/10/05 09:53:26;;;;;;;6.65;4.30;;;16.60;99.90;;;-141.84;59.96;20189.84;5089713;28;20223;-74
2022/10/05 09:56:20;;;;;;;5.13;4.10;;;16.70;99.90;;;-141.84;59.48;20216.25;5100560;28;20226;-72
2022/10/05 09:59:39;;;;;;;4.70;3.72;;;16.80;99.90;;;-141.84;59.93;20220.34;5109962;28;20200;-73
2022/10/05 10:02:39;;;;;;;5.30;4.65;;;17.00;99.90;;;-141.84;59.04;20287.41;5109509;28;20683;-73
2022/10/05 10:05:38;;;;;;;5.68;4.07;;;17.00;99.90;;;-141.84;59.03;20319.94;5110146;28;20212;-72
2022/10/05 10:08:38;;;;;;;4.38;3.95;;;17.30;99.90;;;-141.84;58.34;20354.47;5109739;28;20204;-72
2022/10/05 10:11:32;;;;;;;4.65;4.20;;;17.50;99.90;;;-141.84;57.94;20354.47;5110012;28;20573;-73
2022/10/05 10:15:02;;;;;;;4.93;4.03;;;17.50;99.90;;;-141.84;57.64;20427.66;5109760;28;20659;-74
2022/10/05 10:18:01;;;;;;;7.82;4.38;;;17.60;99.90;;;-141.84;57.28;20506.94;5108864;28;20219;-71
2022/10/05 10:21:02;;;;;;;4.90;4.07;;;17.80;99.90;;;-141.84;56.74;20569.94;5109486;28;20223;-72
2022/10/05 10:24:02;;;;;;;4.53;4.13;;;18.00;99.90;;;-141.84;56.53;20539.47;5109235;28;20669;-73
2022/10/05 10:27:16;;;;;;;6.43;4.20;;;18.00;99.90;;;-141.84;55.32;20628.91;5110023;28;20199;-71
2022/10/05 10:30:08;;;;;;;6.57;4.10;;;18.20;99.90;;;-141.84;55.69;20653.28;5109072;28;20226;-72
2022/10/05 10:33:38;;;;;;;4.53;4.13;;;18.30;99.90;;;-141.84;55.01;20693.94;5109162;28;20180;-73
2022/10/05 10:36:17;;;;;;;6.00;4.45;;;18.40;99.90;;;-141.84;54.41;20752.91;5109383;28;20222;-72
2022/10/05 10:39:01;;;;;;;4.38;3.95;;;18.60;99.90;;;-141.84;53.83;20791.53;5109579;28;20266;-73
2022/10/05 10:42:17;;;;;;;5.60;4.15;;;18.80;99.90;;;-141.84;54.04;20850.47;5109379;28;20200;-72
2022/10/05 10:45:22;;;;;;;4.40;4.00;;;18.90;99.90;;;-141.84;53.37;20913.50;5089233;28;20219;-72
2022/10/05 10:48:03;;;;;;;4.53;3.80;;;19.20;99.90;;;-141.84;53.27;20935.88;5076129;28;20224;-72
2022/10/05 10:51:17;;;;;;;4.55;3.88;;;19.40;99.90;;;-141.84;51.81;21007.00;5091825;28;20191;-71
2022/10/05 10:54:22;;;;;;;4.65;4.22;;;19.60;99.90;;;-141.84;51.02;21072.06;5092821;28;20227;-71
2022/10/05 10:57:05;;;;;;;4.68;3.63;;;19.70;99.90;;;-141.84;50.12;21183.88;5111074;28;20231;-72
2022/10/05 11:00:34;;;;;;;5.10;4.03;;;19.80;99.90;;;-141.84;49.56;21255.03;5092681;28;20192;-73
2022/10/05 11:03:57;;;;;;;4.13;3.72;;;20.00;99.90;;;-141.84;48.47;21356.69;5092156;28;20235;-72
2022/10/05 11:07:05;;;;;;;5.15;4.30;;;20.30;99.90;;;-141.84;48.58;21326.22;5065099;28;20223;-72
2022/10/05 11:10:08;;;;;;;4.20;3.65;;;20.40;99.90;;;-141.84;48.99;21285.53;5112203;28;20305;-71
2022/10/05 11:13:23;;;;;;;4.55;3.35;;;20.50;99.90;;;-141.84;48.57;21311.97;5112649;28;20230;-73
2022/10/05 11:16:26;;;;;;;3.92;3.50;;;20.60;99.90;;;-141.84;48.46;21356.69;5112523;28;20722;-71
2022/10/05 11:19:43;;;;;;;5.30;3.67;;;20.60;99.90;;;-141.84;47.82;21393.31;5112315;28;20276;-73
2022/10/05 11:23:03;;;;;;;3.80;3.38;;;20.70;99.90;;;-141.84;49.34;21232.69;5112107;28;20272;-71
2022/10/05 11:26:13;;;;;;;4.90;3.50;;;20.30;99.90;;;-141.84;49.37;21216.41;5111953;27;20273;-72
2022/10/05 11:29:16;;;;;;;4.22;3.38;;;20.10;99.90;;;-141.84;50.14;21216.41;5082417;28;20222;-72
2022/10/05 11:32:26;;;;;;;4.32;3.80;;;20.10;99.90;;;-141.84;50.05;21218.44;5110881;28;20223;-73